Time;durP1;ratioP1;P1;durP2;ratioP2;P2;SDS_P1;SDS_P2;PMS_P1;PMS_P2;Temp;Humidity;BMP_temperature;BMP_pressure;BME280_temperature;BME280_humidity;BME280_pressure;Samples;Min_cycle;Max_cycle;Signal;HPM_P1;HPM_P2
2022/05/10 00:01:36;;;;;;;9.90;4.82;;;18.10;99.90;;;;;;5023311;28;20091;-67
2022/05/10 00:04:05;;;;;;;10.95;4.13;;;18.20;99.90;;;;;;5026144;28;20049;-67
2022/05/10 00:06:39;;;;;;;12.23;5.68;;;18.40;99.90;;;;;;5026403;28;20036;-67
2022/05/10 00:09:07;;;;;;;;;;;18.60;99.90;;;;;;5027627;28;20026;-68
2022/05/10 00:11:34;;;;;;;10.38;5.43;;;18.70;99.90;;;;;;5025458;28;19913;-68
2022/05/10 00:14:02;;;;;;;10.88;5.38;;;18.90;99.90;;;;;;5031613;28;20030;-68
2022/05/10 00:16:29;;;;;;;9.95;5.40;;;19.00;99.90;;;;;;5019807;28;20025;-69
2022/05/10 00:18:56;;;;;;;14.52;5.78;;;19.20;99.90;;;;;;5026356;28;20116;-68
2022/05/10 00:21:25;;;;;;;12.30;6.13;;;19.10;99.90;;;;;;5025812;28;20531;-69
2022/05/10 00:23:55;;;;;;;14.93;5.25;;;18.90;99.90;;;;;;5017565;28;20022;-69
2022/05/10 00:26:23;;;;;;;12.65;5.95;;;19.10;99.90;;;;;;5022573;28;20028;-69
2022/05/10 00:28:50;;;;;;;10.02;3.33;;;19.30;99.90;;;;;;5026276;28;20112;-69
2022/05/10 00:31:18;;;;;;;8.98;2.10;;;19.20;99.90;;;;;;5020773;28;20029;-69
2022/05/10 00:33:46;;;;;;;8.15;1.55;;;19.40;99.90;;;;;;5021367;28;20021;-68
2022/05/10 00:36:15;;;;;;;10.40;1.50;;;19.70;99.90;;;;;;5020314;28;20359;-69
2022/05/10 00:38:43;;;;;;;10.65;2.45;;;19.80;99.90;;;;;;5028319;28;20510;-69
2022/05/10 00:41:46;;;;;;;11.88;1.70;;;19.90;99.90;;;;;;5031011;28;20029;-69
2022/05/10 00:44:42;;;;;;;11.73;2.30;;;19.80;99.90;;;;;;5032557;28;20164;-68
2022/05/10 00:47:52;;;;;;;9.93;1.10;;;19.70;99.90;;;;;;5024358;28;20050;-68
2022/05/10 00:50:48;;;;;;;7.72;0.90;;;19.80;99.90;;;;;;5020129;28;20633;-70
2022/05/10 00:53:39;;;;;;;10.23;1.17;;;20.00;99.90;;;;;;5005244;28;20156;-70
2022/05/10 00:56:29;;;;;;;6.00;1.00;;;20.10;99.90;;;;;;5024009;28;20036;-69
2022/05/10 00:59:12;;;;;;;6.80;1.00;;;20.20;99.90;;;;;;5026810;28;20049;-69
2022/05/10 01:01:41;;;;;;;4.28;0.93;;;20.30;99.90;;;;;;5015483;28;20552;-68
2022/05/10 01:04:38;;;;;;;6.07;0.68;;;20.30;99.90;;;;;;5034353;28;20018;-69
2022/05/10 01:07:24;;;;;;;9.60;1.30;;;20.10;99.90;;;;;;5024148;28;20036;-69
2022/05/10 01:10:05;;;;;;;12.88;1.42;;;20.10;99.90;;;;;;5021947;28;20524;-70
2022/05/10 01:13:05;;;;;;;7.95;1.25;;;20.30;99.90;;;;;;5030960;28;20045;-70
2022/05/10 01:15:35;;;;;;;6.82;0.95;;;20.30;99.90;;;;;;5021822;28;20420;-69
2022/05/10 01:18:02;;;;;;;11.45;1.55;;;20.40;99.90;;;;;;5023864;28;20038;-70
2022/05/10 01:20:44;;;;;;;12.85;1.80;;;20.60;99.90;;;;;;5032113;28;20418;-70
2022/05/10 01:23:42;;;;;;;11.73;1.75;;;20.60;99.90;;;;;;5032153;28;20037;-69
2022/05/10 01:26:30;;;;;;;9.45;1.27;;;20.50;99.90;;;;;;5020160;28;20334;-69
2022/05/10 01:29:07;;;;;;;6.32;1.15;;;20.50;99.90;;;;;;5034374;28;20031;-69
2022/05/10 01:31:41;;;;;;;9.05;1.08;;;20.60;99.90;;;;;;5033384;28;20040;-69
2022/05/10 01:34:15;;;;;;;7.75;1.10;;;20.40;99.90;;;;;;5020540;28;20532;-69
2022/05/10 01:36:56;;;;;;;7.35;1.00;;;20.40;99.90;;;;;;5016652;28;20555;-69
2022/05/10 01:39:42;;;;;;;10.85;1.23;;;20.30;99.90;;;;;;5027818;28;20067;-69
2022/05/10 01:42:30;;;;;;;7.55;1.08;;;20.20;99.90;;;;;;5024175;28;20099;-70
2022/05/10 01:45:23;;;;;;;9.70;1.08;;;20.10;99.90;;;;;;5022702;28;20017;-69
2022/05/10 01:48:02;;;;;;;10.93;1.45;;;20.00;99.90;;;;;;5031167;28;20037;-70
2022/05/10 01:50:47;;;;;;;9.75;1.10;;;20.00;99.90;;;;;;5027707;28;20025;-68
2022/05/10 01:53:34;;;;;;;10.60;1.45;;;20.00;99.90;;;;;;5012789;28;20046;-68
2022/05/10 01:56:19;;;;;;;6.57;0.75;;;20.00;99.90;;;;;;5014375;28;20030;-68
2022/05/10 01:58:48;;;;;;;5.53;1.00;;;20.00;99.90;;;;;;5023861;28;20033;-68
2022/05/10 02:01:18;;;;;;;9.57;1.08;;;20.20;99.90;;;;;;5028198;28;20053;-68
2022/05/10 02:04:15;;;;;;;7.63;1.35;;;20.20;99.90;;;;;;5034299;28;20033;-69
2022/05/10 02:06:51;;;;;;;10.00;1.05;;;20.30;99.90;;;;;;5036253;28;20060;-68
2022/05/10 02:09:31;;;;;;;14.05;1.45;;;20.30;99.90;;;;;;5036168;28;20042;-68
2022/05/10 02:12:22;;;;;;;19.40;1.55;;;20.30;99.90;;;;;;5039928;28;20022;-68
2022/05/10 02:15:02;;;;;;;8.10;1.05;;;20.30;99.90;;;;;;5038037;28;20033;-68
2022/05/10 02:17:35;;;;;;;5.65;0.88;;;20.30;99.90;;;;;;5023035;28;20037;-69
2022/05/10 02:20:23;;;;;;;10.27;1.05;;;20.30;99.90;;;;;;5033324;28;20038;-68
2022/05/10 02:22:59;;;;;;;7.10;1.05;;;20.30;99.90;;;;;;5027047;28;20018;-68
2022/05/10 02:25:42;;;;;;;6.68;1.55;;;20.30;99.90;;;;;;5036136;28;20033;-67
2022/05/10 02:28:30;;;;;;;12.13;1.00;;;20.20;99.90;;;;;;5041457;28;20055;-69
2022/05/10 02:31:04;;;;;;;6.80;1.15;;;20.20;99.90;;;;;;5035637;28;20111;-69
2022/05/10 02:33:31;;;;;;;7.88;0.80;;;20.10;99.90;;;;;;5030347;28;20108;-68
2022/05/10 02:36:01;;;;;;;10.32;1.23;;;20.00;99.90;;;;;;5036582;28;20033;-68
2022/05/10 02:38:36;;;;;;;9.18;1.10;;;20.10;99.90;;;;;;5024018;28;20037;-69
2022/05/10 02:41:22;;;;;;;12.15;1.08;;;20.00;99.90;;;;;;5023169;28;20061;-68
2022/05/10 02:43:58;;;;;;;9.20;1.02;;;20.00;99.90;;;;;;5022360;28;20029;-68
2022/05/10 02:46:26;;;;;;;9.30;1.23;;;19.90;99.90;;;;;;5021563;28;20018;-69
2022/05/10 02:48:54;;;;;;;10.52;1.45;;;19.90;99.90;;;;;;5023346;28;20079;-69
2022/05/10 02:51:22;;;;;;;11.63;1.65;;;19.90;99.90;;;;;;5018197;28;20095;-68
2022/05/10 02:53:49;;;;;;;10.05;1.70;;;20.00;99.90;;;;;;5026949;28;20026;-70
2022/05/10 02:56:21;;;;;;;9.48;0.90;;;20.10;99.90;;;;;;5019483;28;20041;-68
2022/05/10 02:58:48;;;;;;;8.10;1.80;;;20.10;99.90;;;;;;5015821;28;20045;-69
2022/05/10 03:01:34;;;;;;;6.65;1.50;;;20.00;99.90;;;;;;5021678;28;20440;-69
2022/05/10 03:04:01;;;;;;;13.73;2.17;;;19.90;99.90;;;;;;5020211;28;20085;-69
2022/05/10 03:06:30;;;;;;;12.38;2.22;;;19.80;99.90;;;;;;5025224;28;20037;-69
2022/05/10 03:08:59;;;;;;;13.18;2.05;;;19.70;99.90;;;;;;5025241;28;20038;-69
2022/05/10 03:11:27;;;;;;;13.43;1.30;;;19.70;99.90;;;;;;5025316;28;20025;-69
2022/05/10 03:13:54;;;;;;;10.02;1.05;;;19.60;99.90;;;;;;5013381;28;20131;-68
2022/05/10 03:16:24;;;;;;;9.23;1.60;;;19.70;99.90;;;;;;5025541;28;20482;-68
2022/05/10 03:18:53;;;;;;;16.30;2.05;;;19.70;99.90;;;;;;5031202;28;20112;-69
2022/05/10 03:21:21;;;;;;;7.32;1.65;;;19.80;99.90;;;;;;5027344;28;20026;-69
2022/05/10 03:23:48;;;;;;;11.38;3.17;;;20.10;99.90;;;;;;5030511;28;20060;-69
2022/05/10 03:26:21;;;;;;;13.13;2.83;;;20.50;99.90;;;;;;5032938;28;20030;-69
2022/05/10 03:28:49;;;;;;;9.68;2.30;;;21.00;99.90;;;;;;5026386;28;20021;-69
2022/05/10 03:31:18;;;;;;;7.20;1.33;;;20.70;99.90;;;;;;5027063;28;20030;-69
2022/05/10 03:34:53;;;;;;;7.53;2.00;;;20.40;99.90;;;;;;5019581;28;20378;-69
2022/05/10 03:36:33;;;;;;;5.43;1.17;;;20.30;99.90;;;;;;5025826;28;20477;-69
2022/05/10 03:39:00;;;;;;;8.77;1.15;;;20.10;99.90;;;;;;5026568;28;20057;-69
2022/05/10 03:41:28;;;;;;;6.80;1.00;;;20.10;99.90;;;;;;5029115;28;20045;-68
2022/05/10 03:43:55;;;;;;;8.80;1.17;;;20.20;99.90;;;;;;5029606;28;20068;-69
2022/05/10 03:46:22;;;;;;;7.05;0.73;;;20.30;99.90;;;;;;5027788;28;20033;-69
2022/05/10 03:48:50;;;;;;;14.35;1.98;;;20.50;99.90;;;;;;5024453;28;20022;-69
2022/05/10 03:51:18;;;;;;;10.15;1.67;;;20.60;99.90;;;;;;5025293;28;20085;-68
2022/05/10 03:53:45;;;;;;;6.10;1.13;;;20.60;99.90;;;;;;5036611;28;20064;-69
2022/05/10 03:56:12;;;;;;;7.75;1.00;;;20.80;99.90;;;;;;5030306;28;20052;-69
2022/05/10 03:58:40;;;;;;;8.40;0.77;;;20.80;99.90;;;;;;5031078;28;20113;-70
2022/05/10 04:01:07;;;;;;;8.68;1.30;;;20.80;99.90;;;;;;5020965;28;20030;-69
2022/05/10 04:03:35;;;;;;;5.90;1.10;;;20.70;99.90;;;;;;5031143;28;20810;-69
2022/05/10 04:06:03;;;;;;;6.70;1.02;;;20.50;99.90;;;;;;5024653;28;20021;-68
2022/05/10 04:08:30;;;;;;;8.90;1.15;;;20.30;99.90;;;;;;5033116;28;20065;-69
2022/05/10 04:11:09;;;;;;;8.75;0.88;;;20.40;99.90;;;;;;5019825;28;20028;-68
2022/05/10 04:13:38;;;;;;;4.20;0.75;;;20.50;99.90;;;;;;5021478;28;20490;-69
2022/05/10 04:16:06;;;;;;;12.18;1.50;;;20.50;99.90;;;;;;5029240;28;20026;-68
2022/05/10 04:18:34;;;;;;;7.93;1.02;;;20.50;99.90;;;;;;5034575;28;20429;-68
2022/05/10 04:21:01;;;;;;;7.18;1.13;;;20.40;99.90;;;;;;5026040;28;20021;-68
2022/05/10 04:23:29;;;;;;;8.82;1.30;;;20.40;99.90;;;;;;5026482;28;20057;-68
2022/05/10 04:26:01;;;;;;;14.10;1.10;;;20.40;99.90;;;;;;5020540;28;20030;-68
2022/05/10 04:28:29;;;;;;;6.45;0.93;;;20.30;99.90;;;;;;5022247;28;20029;-68
2022/05/10 04:30:56;;;;;;;6.15;1.05;;;20.40;99.90;;;;;;5020957;28;20030;-69
2022/05/10 04:33:23;;;;;;;6.90;0.90;;;20.40;99.90;;;;;;5029071;28;20497;-68
2022/05/10 04:35:50;;;;;;;9.18;1.20;;;20.50;99.90;;;;;;5017312;28;20030;-68
2022/05/10 04:38:18;;;;;;;6.07;0.77;;;20.40;99.90;;;;;;5024665;28;20033;-69
2022/05/10 04:43:32;;;;;;;6.75;0.63;;;20.40;99.90;;;;;;5028917;28;20128;-68
2022/05/10 04:46:00;;;;;;;5.43;1.08;;;20.40;99.90;;;;;;5021159;28;20095;-68
2022/05/10 04:48:27;;;;;;;8.70;0.88;;;20.30;99.90;;;;;;5020052;28;20398;-68
2022/05/10 04:50:55;;;;;;;7.80;1.10;;;20.20;99.90;;;;;;5020193;28;20014;-68
2022/05/10 04:53:22;;;;;;;7.45;0.65;;;20.10;99.90;;;;;;5029002;28;20038;-68
2022/05/10 04:55:50;;;;;;;9.63;1.17;;;20.10;99.90;;;;;;5027836;28;20037;-68
2022/05/10 04:58:17;;;;;;;6.50;0.73;;;20.00;99.90;;;;;;5028169;28;20524;-68
2022/05/10 05:00:44;;;;;;;5.60;0.75;;;20.00;99.90;;;;;;5021094;28;20030;-69
2022/05/10 05:03:11;;;;;;;9.98;0.70;;;20.00;99.90;;;;;;5015808;28;20040;-69
2022/05/10 05:05:39;;;;;;;6.10;1.05;;;20.10;99.90;;;;;;5022356;28;20026;-68
2022/05/10 05:08:06;;;;;;;6.72;0.88;;;20.20;99.90;;;;;;5030143;28;20124;-68
2022/05/10 05:10:33;;;;;;;7.97;1.00;;;20.30;99.90;;;;;;5019568;28;20034;-68
2022/05/10 05:13:01;;;;;;;7.18;1.02;;;20.30;99.90;;;;;;5021969;28;20033;-68
2022/05/10 05:15:28;;;;;;;7.68;0.90;;;20.20;99.90;;;;;;5022754;28;20026;-68
2022/05/10 05:17:55;;;;;;;6.70;0.93;;;20.10;99.90;;;;;;5019028;28;20125;-69
2022/05/10 05:20:22;;;;;;;7.63;0.95;;;20.00;99.90;;;;;;5025279;28;20095;-68
2022/05/10 05:22:53;;;;;;;3.20;0.60;;;20.00;99.90;;;;;;5031798;28;20080;-68
2022/05/10 05:25:21;;;;;;;5.40;0.60;;;19.80;99.90;;;;;;5023631;28;20029;-68
2022/05/10 05:27:48;;;;;;;6.22;1.17;;;19.90;99.90;;;;;;5031470;28;20032;-68
2022/05/10 05:30:15;;;;;;;8.25;0.75;;;19.90;99.90;;;;;;5020888;28;20111;-68
2022/05/10 05:32:43;;;;;;;8.52;0.98;;;19.90;99.90;;;;;;5028068;28;20075;-68
2022/05/10 05:35:12;;;;;;;6.53;1.17;;;19.90;99.90;;;;;;5021765;28;20021;-69
2022/05/10 05:37:39;;;;;;;9.88;1.35;;;19.90;99.90;;;;;;5021127;28;20048;-69
2022/05/10 05:40:10;;;;;;;8.18;0.93;;;20.00;99.90;;;;;;5025085;28;20037;-69
2022/05/10 05:42:38;;;;;;;6.35;0.60;;;20.00;99.90;;;;;;5021721;28;20478;-69
2022/05/10 05:45:07;;;;;;;5.63;0.82;;;20.00;99.90;;;;;;5025148;28;20033;-69
2022/05/10 05:47:35;;;;;;;5.10;0.98;;;20.00;99.90;;;;;;5025913;28;20060;-69
2022/05/10 05:50:03;;;;;;;7.65;0.95;;;19.90;99.90;;;;;;5021172;28;20636;-69
2022/05/10 05:52:32;;;;;;;5.30;0.70;;;19.80;99.90;;;;;;5026263;28;20049;-68
2022/05/10 05:54:59;;;;;;;8.68;1.38;;;19.80;99.90;;;;;;5027433;28;20156;-69
2022/05/10 05:57:26;;;;;;;6.25;0.75;;;19.80;99.90;;;;;;5026426;28;20045;-69
2022/05/10 05:59:56;;;;;;;9.98;1.20;;;19.70;99.90;;;;;;5021308;28;20442;-69
2022/05/10 06:02:25;;;;;;;5.65;0.85;;;19.60;99.90;;;;;;5023033;28;20066;-68
2022/05/10 06:04:53;;;;;;;6.13;0.70;;;19.50;99.90;;;;;;5021021;28;20116;-68
2022/05/10 06:07:21;;;;;;;7.85;1.23;;;19.50;99.90;;;;;;5022684;28;20022;-69
2022/05/10 06:09:48;;;;;;;8.02;1.45;;;19.50;99.90;;;;;;5021328;28;20083;-68
2022/05/10 06:12:19;;;;;;;12.80;0.90;;;19.50;99.90;;;;;;5023907;28;20063;-68
2022/05/10 06:14:47;;;;;;;6.25;0.60;;;19.40;99.90;;;;;;5019249;28;20029;-68
2022/05/10 06:17:15;;;;;;;8.25;1.42;;;19.40;99.90;;;;;;5024712;28;20041;-69
2022/05/10 06:19:44;;;;;;;4.43;0.60;;;19.40;99.90;;;;;;5022479;28;20060;-68
2022/05/10 06:22:12;;;;;;;7.50;0.70;;;19.30;99.90;;;;;;5017260;28;20363;-68
2022/05/10 06:24:40;;;;;;;8.48;0.50;;;19.30;99.90;;;;;;5023286;28;20397;-68
2022/05/10 06:27:13;;;;;;;5.60;0.50;;;19.30;99.90;;;;;;5023054;28;20596;-69
2022/05/10 06:29:41;;;;;;;2.97;0.85;;;19.20;99.90;;;;;;5021836;28;20018;-68
2022/05/10 06:32:11;;;;;;;4.90;0.93;;;19.10;99.90;;;;;;5020179;28;20038;-68
2022/05/10 06:34:40;;;;;;;8.27;0.40;;;19.00;99.90;;;;;;5028209;28;20029;-69
2022/05/10 06:39:53;;;;;;;6.40;0.93;;;19.00;99.90;;;;;;5017492;28;20079;-69
2022/05/10 06:42:24;;;;;;;8.27;1.20;;;19.10;99.90;;;;;;5023620;28;20025;-69
2022/05/10 06:44:52;;;;;;;8.38;1.05;;;19.00;99.90;;;;;;5017136;28;20052;-68
2022/05/10 06:47:19;;;;;;;8.52;1.10;;;19.00;99.90;;;;;;5017213;28;20068;-68
2022/05/10 06:49:47;;;;;;;6.13;1.30;;;19.00;99.90;;;;;;5025636;28;20057;-68
2022/05/10 06:52:17;;;;;;;4.20;0.77;;;19.00;99.90;;;;;;5025002;28;20052;-68
2022/05/10 06:54:45;;;;;;;6.47;0.80;;;18.90;99.90;;;;;;5020880;28;20359;-69
2022/05/10 06:57:13;;;;;;;3.50;0.35;;;18.90;99.90;;;;;;5021716;28;20163;-68
2022/05/10 06:59:40;;;;;;;6.53;1.00;;;18.90;99.90;;;;;;5026559;28;20072;-69
2022/05/10 07:02:07;;;;;;;11.75;0.90;;;18.90;99.90;;;;;;5023189;28;20095;-69
2022/05/10 07:04:34;;;;;;;8.50;0.63;;;18.80;99.90;;;;;;5026402;28;20021;-68
2022/05/10 07:07:02;;;;;;;7.38;0.90;;;18.90;99.90;;;;;;5019477;28;20108;-68
2022/05/10 07:09:29;;;;;;;4.35;0.60;;;18.80;99.90;;;;;;5025725;28;20056;-68
2022/05/10 07:11:56;;;;;;;4.60;0.90;;;18.80;99.90;;;;;;5030120;28;20064;-69
2022/05/10 07:14:23;;;;;;;6.20;0.98;;;18.80;99.90;;;;;;5017821;28;20029;-68
2022/05/10 07:16:51;;;;;;;4.25;0.75;;;18.80;99.90;;;;;;5022459;28;20079;-68
2022/05/10 07:19:18;;;;;;;9.57;1.45;;;18.80;99.90;;;;;;5025565;28;20486;-68
2022/05/10 07:21:47;;;;;;;5.75;0.85;;;18.80;99.90;;;;;;5016587;28;20029;-68
2022/05/10 07:24:16;;;;;;;7.68;1.00;;;18.70;99.90;;;;;;5028952;28;20048;-68
2022/05/10 07:26:45;;;;;;;10.70;1.45;;;18.80;99.90;;;;;;5014767;28;20024;-68
2022/05/10 07:29:14;;;;;;;5.60;0.65;;;18.80;99.90;;;;;;5012463;28;20026;-69
2022/05/10 07:31:42;;;;;;;6.95;0.63;;;18.80;99.90;;;;;;5027010;28;20026;-68
2022/05/10 07:34:10;;;;;;;9.20;1.55;;;18.80;99.90;;;;;;5024753;28;20036;-68
2022/05/10 07:36:38;;;;;;;3.85;0.70;;;18.80;99.90;;;;;;5029649;28;20443;-69
2022/05/10 07:39:09;;;;;;;5.75;1.48;;;18.80;99.90;;;;;;5020479;28;20096;-69
2022/05/10 07:41:37;;;;;;;7.75;1.10;;;18.80;99.90;;;;;;5031477;28;20385;-69
2022/05/10 07:44:07;;;;;;;7.20;1.20;;;18.80;99.90;;;;;;5016764;28;20042;-68
2022/05/10 07:46:35;;;;;;;6.45;0.95;;;18.70;99.90;;;;;;5026405;28;20026;-69
2022/05/10 07:49:02;;;;;;;3.95;0.95;;;18.80;99.90;;;;;;5032362;28;20076;-69
2022/05/10 07:51:30;;;;;;;5.93;0.88;;;18.70;99.90;;;;;;5020614;28;20539;-69
2022/05/10 07:53:58;;;;;;;8.85;0.80;;;18.70;99.90;;;;;;5022288;28;20026;-69
2022/05/10 07:56:25;;;;;;;6.85;1.63;;;18.70;99.90;;;;;;5018075;28;20488;-68
2022/05/10 07:58:54;;;;;;;4.80;0.93;;;18.70;99.90;;;;;;5022124;28;20613;-69
2022/05/10 08:01:22;;;;;;;10.63;1.23;;;18.70;99.90;;;;;;5022430;28;20485;-69
2022/05/10 08:03:49;;;;;;;4.53;0.68;;;18.70;99.90;;;;;;5016534;28;20026;-69
2022/05/10 08:06:17;;;;;;;7.65;0.75;;;18.70;99.90;;;;;;5016551;28;20022;-69
2022/05/10 08:08:45;;;;;;;7.45;0.93;;;18.70;99.90;;;;;;5017771;28;20470;-68
2022/05/10 08:11:12;;;;;;;11.98;1.55;;;18.60;99.90;;;;;;5028770;28;20026;-68
2022/05/10 08:13:41;;;;;;;5.60;0.70;;;18.70;99.90;;;;;;5017385;28;20050;-69
2022/05/10 08:16:09;;;;;;;3.75;0.43;;;18.80;99.90;;;;;;5019988;28;20069;-68
2022/05/10 08:18:41;;;;;;;4.07;0.80;;;18.80;99.90;;;;;;5026858;28;20041;-69
2022/05/10 08:21:09;;;;;;;3.15;0.85;;;18.80;99.90;;;;;;5023621;28;20030;-69
2022/05/10 08:23:38;;;;;;;6.43;0.57;;;18.80;99.90;;;;;;5035873;28;20048;-69
2022/05/10 08:26:08;;;;;;;9.60;1.05;;;18.80;99.90;;;;;;5021117;28;20029;-69
2022/05/10 08:28:36;;;;;;;8.50;0.70;;;18.80;99.90;;;;;;5026697;28;20071;-69
2022/05/10 08:31:07;;;;;;;3.95;0.60;;;18.70;99.90;;;;;;5024032;28;20030;-69
2022/05/10 08:33:38;;;;;;;3.85;0.80;;;18.70;99.90;;;;;;5031202;28;20072;-69
2022/05/10 08:36:08;;;;;;;4.20;0.60;;;18.60;99.90;;;;;;5021381;28;20110;-68
2022/05/10 08:38:36;;;;;;;7.78;1.38;;;18.70;99.90;;;;;;5021547;28;20041;-69
2022/05/10 08:41:38;;;;;;;7.30;0.98;;;18.60;99.90;;;;;;5024855;28;20025;-69
2022/05/10 08:44:15;;;;;;;7.68;0.88;;;18.70;99.90;;;;;;5027187;28;20049;-68
2022/05/10 08:46:51;;;;;;;7.35;1.45;;;18.60;99.90;;;;;;5018943;28;20026;-68
2022/05/10 08:49:39;;;;;;;6.47;0.98;;;18.60;99.90;;;;;;5040895;28;20024;-68
2022/05/10 08:52:07;;;;;;;12.32;0.82;;;18.60;99.90;;;;;;5030283;28;20498;-68
2022/05/10 08:54:38;;;;;;;5.50;0.98;;;18.50;99.90;;;;;;5016338;28;20030;-68
2022/05/10 08:57:37;;;;;;;5.60;0.85;;;18.50;99.90;;;;;;5015033;28;20052;-68
2022/05/10 09:00:22;;;;;;;3.58;0.82;;;18.50;99.90;;;;;;5015559;28;20026;-68
2022/05/10 09:02:54;;;;;;;6.43;1.33;;;18.50;99.90;;;;;;5015879;28;20097;-68
2022/05/10 09:05:44;;;;;;;2.20;0.50;;;18.50;99.90;;;;;;5025862;28;20160;-68
2022/05/10 09:08:32;;;;;;;7.10;1.13;;;18.50;99.90;;;;;;5026022;28;20450;-68
2022/05/10 09:11:08;;;;;;;4.15;0.60;;;18.40;99.90;;;;;;5019758;28;20045;-68
2022/05/10 09:13:36;;;;;;;7.78;0.95;;;18.40;99.90;;;;;;5030226;28;20025;-68
2022/05/10 09:16:06;;;;;;;3.35;0.77;;;18.40;99.90;;;;;;5021074;28;20030;-68
2022/05/10 09:18:55;;;;;;;5.78;0.50;;;18.40;99.90;;;;;;5023643;28;20517;-68
2022/05/10 09:21:50;;;;;;;4.60;0.63;;;18.40;99.90;;;;;;5021445;28;20025;-69
2022/05/10 09:24:47;;;;;;;5.38;0.57;;;18.30;99.90;;;;;;5016199;28;20052;-68
2022/05/10 09:27:14;;;;;;;2.85;0.50;;;18.30;99.90;;;;;;5025784;28;20034;-68
2022/05/10 09:29:46;;;;;;;4.63;0.70;;;18.30;99.90;;;;;;5021578;28;20145;-68
2022/05/10 09:35:27;;;;;;;5.22;0.75;;;18.30;99.90;;;;;;5023253;28;20048;-68
2022/05/10 09:38:06;;;;;;;3.28;0.70;;;18.30;99.90;;;;;;5029656;28;20025;-69
2022/05/10 09:40:42;;;;;;;7.43;0.80;;;18.30;99.90;;;;;;5023208;28;20482;-69
2022/05/10 09:43:23;;;;;;;10.25;0.85;;;18.40;99.90;;;;;;5024932;28;20417;-68
2022/05/10 09:46:08;;;;;;;4.25;0.95;;;18.40;99.90;;;;;;5018516;28;20025;-69
2022/05/10 09:48:36;;;;;;;7.10;1.45;;;18.40;99.90;;;;;;5014720;28;20042;-68
2022/05/10 09:51:34;;;;;;;6.63;1.25;;;18.30;99.90;;;;;;5022887;28;20433;-68
2022/05/10 09:54:32;;;;;;;3.53;0.90;;;18.30;99.90;;;;;;5023520;28;20063;-68
2022/05/10 09:56:59;;;;;;;10.00;1.60;;;18.30;99.90;;;;;;5017710;28;20072;-68
2022/05/10 09:59:48;;;;;;;6.82;0.90;;;18.20;99.90;;;;;;5014925;28;20597;-68
2022/05/10 10:02:34;;;;;;;7.32;0.93;;;18.30;99.90;;;;;;5021377;28;20084;-69
2022/05/10 10:05:20;;;;;;;5.47;1.25;;;18.40;99.90;;;;;;5032789;28;20106;-69
2022/05/10 10:07:54;;;;;;;7.10;0.57;;;18.40;99.90;;;;;;5030259;28;20107;-69
2022/05/10 10:10:34;;;;;;;6.47;0.95;;;18.40;99.90;;;;;;5031368;28;20044;-68
2022/05/10 10:13:27;;;;;;;9.00;0.80;;;18.30;99.90;;;;;;5032652;28;20496;-68
2022/05/10 10:15:55;;;;;;;6.18;1.13;;;18.40;99.90;;;;;;5025540;28;20390;-68
2022/05/10 10:18:48;;;;;;;3.85;0.82;;;18.30;99.90;;;;;;5013682;28;20042;-68
2022/05/10 10:21:36;;;;;;;5.72;0.70;;;18.20;99.90;;;;;;5027828;28;20116;-68
2022/05/10 10:24:04;;;;;;;8.20;0.85;;;18.10;99.90;;;;;;5017102;28;20036;-68
2022/05/10 10:26:48;;;;;;;4.43;1.10;;;18.20;99.90;;;;;;5012980;28;20054;-68
2022/05/10 10:29:22;;;;;;;5.55;1.00;;;18.20;99.90;;;;;;5018894;28;20022;-68
2022/05/10 10:31:52;;;;;;;4.75;0.82;;;18.20;99.90;;;;;;5017575;28;20025;-68
2022/05/10 10:34:42;;;;;;;5.72;1.13;;;18.20;99.90;;;;;;5024365;28;20052;-68
2022/05/10 10:37:20;;;;;;;9.60;1.08;;;18.40;99.90;;;;;;5013115;28;20474;-68
2022/05/10 10:40:00;;;;;;;5.40;1.17;;;18.30;99.90;;;;;;5012374;28;20087;-68
2022/05/10 10:42:48;;;;;;;10.32;1.15;;;18.30;99.90;;;;;;5024862;28;20053;-69
2022/05/10 10:45:17;;;;;;;7.43;1.10;;;18.20;99.90;;;;;;5031503;28;20036;-68
2022/05/10 10:48:00;;;;;;;4.88;0.47;;;18.10;99.90;;;;;;5025772;28;20025;-68
2022/05/10 10:50:30;;;;;;;4.88;0.68;;;18.20;99.90;;;;;;5013126;28;20030;-68
2022/05/10 10:52:59;;;;;;;9.60;1.33;;;18.20;99.90;;;;;;5012861;28;20058;-69
2022/05/10 10:55:47;;;;;;;4.80;1.10;;;18.20;99.90;;;;;;5017735;28;20032;-69
2022/05/10 10:58:14;;;;;;;6.78;0.77;;;18.10;99.90;;;;;;5026264;28;20076;-68
2022/05/10 11:00:48;;;;;;;4.78;0.98;;;18.20;99.90;;;;;;5012957;28;20092;-69
2022/05/10 11:03:36;;;;;;;6.30;1.35;;;18.10;99.90;;;;;;5018290;28;20021;-69
2022/05/10 11:06:26;;;;;;;5.75;0.60;;;18.10;99.90;;;;;;5027173;28;20033;-68
2022/05/10 11:09:17;;;;;;;7.22;0.70;;;18.10;99.90;;;;;;5032277;28;20022;-69
2022/05/10 11:11:54;;;;;;;4.82;0.60;;;18.10;99.90;;;;;;5022657;28;20120;-68
2022/05/10 11:14:36;;;;;;;4.28;0.57;;;18.10;99.90;;;;;;5024805;28;20063;-68
2022/05/10 11:17:09;;;;;;;7.15;0.80;;;18.10;99.90;;;;;;5030349;28;20040;-68
2022/05/10 11:19:36;;;;;;;7.23;1.37;;;18.10;99.90;;;;;;5030655;28;20044;-69
2022/05/10 11:22:13;;;;;;;8.73;0.80;;;18.20;99.90;;;;;;5028255;28;20030;-68
2022/05/10 11:24:40;;;;;;;5.53;0.68;;;18.10;99.90;;;;;;5025200;28;20037;-68
2022/05/10 11:27:41;;;;;;;4.07;0.43;;;18.10;99.90;;;;;;5013130;28;20018;-69
2022/05/10 11:30:11;;;;;;;3.08;0.38;;;18.10;99.90;;;;;;5012953;28;20022;-68
2022/05/10 11:33:00;;;;;;;4.72;0.47;;;18.00;99.90;;;;;;5029196;28;20480;-68
2022/05/10 11:35:39;;;;;;;5.40;0.63;;;18.10;99.90;;;;;;5032421;28;20100;-69
2022/05/10 11:38:33;;;;;;;6.97;0.82;;;18.00;99.90;;;;;;5021566;28;20113;-69
2022/05/10 11:41:07;;;;;;;7.10;0.43;;;18.00;99.90;;;;;;5030933;28;20032;-69
2022/05/10 11:43:40;;;;;;;3.75;0.50;;;18.20;99.90;;;;;;5033646;28;20120;-69
2022/05/10 11:46:33;;;;;;;6.35;0.47;;;18.10;99.90;;;;;;5025561;28;20034;-69
2022/05/10 11:49:37;;;;;;;6.15;0.73;;;18.20;99.90;;;;;;5026923;28;20033;-69
2022/05/10 11:52:42;;;;;;;6.28;0.77;;;18.20;99.90;;;;;;5016116;28;20053;-69
2022/05/10 11:55:14;;;;;;;;;;;18.30;99.90;;;;;;5032048;28;20639;-68
2022/05/10 11:57:43;;;;;;;4.57;0.63;;;18.40;99.90;;;;;;5018043;28;19906;-68
2022/05/10 12:00:32;;;;;;;7.63;0.98;;;18.50;99.90;;;;;;5017767;28;20045;-69
2022/05/10 12:03:04;;;;;;;3.88;0.40;;;18.50;99.90;;;;;;5023694;28;20469;-68
2022/05/10 12:05:37;;;;;;;7.40;1.08;;;18.50;99.90;;;;;;5020799;28;20022;-68
2022/05/10 12:08:20;;;;;;;5.63;0.50;;;18.50;99.90;;;;;;5017748;28;20037;-68
2022/05/10 12:10:48;;;;;;;3.45;0.60;;;18.50;99.90;;;;;;5024886;28;20079;-68
2022/05/10 12:22:49;;;;;;;2.80;0.45;;;18.40;99.90;;;;;;5023205;28;20057;-68
2022/05/10 12:25:53;;;;;;;6.35;0.50;;;18.40;99.90;;;;;;5028490;28;20478;-68
2022/05/10 12:28:37;;;;;;;4.80;0.63;;;18.50;99.90;;;;;;5023917;28;20421;-68
2022/05/10 12:31:25;;;;;;;5.75;1.15;;;18.50;99.90;;;;;;5030724;28;20450;-68
2022/05/10 12:34:12;;;;;;;4.53;0.40;;;18.50;99.90;;;;;;5029865;28;20061;-73
2022/05/10 12:36:41;;;;;;;7.85;0.90;;;18.50;99.90;;;;;;5030127;28;20060;-68
2022/05/10 12:39:29;;;;;;;3.13;0.38;;;18.50;99.90;;;;;;5026538;28;20486;-68
2022/05/10 12:42:00;;;;;;;7.60;0.70;;;18.50;99.90;;;;;;5017262;28;20025;-68
2022/05/10 12:44:50;;;;;;;8.13;1.38;;;18.50;99.90;;;;;;5024730;28;20424;-68
2022/05/10 12:47:35;;;;;;;5.40;0.43;;;18.50;99.90;;;;;;5019451;28;20084;-68
2022/05/10 12:50:20;;;;;;;10.18;0.70;;;18.50;99.90;;;;;;5027217;28;20029;-68
2022/05/10 12:52:48;;;;;;;6.50;0.70;;;18.50;99.90;;;;;;5024447;28;20401;-68
2022/05/10 12:55:23;;;;;;;4.38;0.88;;;18.50;99.90;;;;;;5020714;28;20491;-68
2022/05/10 12:57:55;;;;;;;5.82;0.82;;;18.50;99.90;;;;;;5026771;28;20052;-68
2022/05/10 13:00:30;;;;;;;4.35;0.60;;;18.50;99.90;;;;;;5031885;28;20120;-68
2022/05/10 13:03:12;;;;;;;11.38;1.27;;;18.40;99.90;;;;;;5028697;28;20083;-68
2022/05/10 13:05:51;;;;;;;4.13;0.38;;;18.40;99.90;;;;;;5026596;28;20044;-68
2022/05/10 13:08:24;;;;;;;7.30;0.55;;;18.40;99.90;;;;;;5020693;28;20057;-68
2022/05/10 13:10:54;;;;;;;3.83;1.00;;;18.30;99.90;;;;;;5019341;28;20355;-68
2022/05/10 13:13:26;;;;;;;5.97;0.75;;;18.30;99.90;;;;;;5018449;28;20026;-68
2022/05/10 13:15:55;;;;;;;4.68;0.75;;;18.20;99.90;;;;;;5022903;28;20417;-68
2022/05/10 13:18:25;;;;;;;6.88;0.98;;;18.00;99.90;;;;;;5019670;28;20061;-68
2022/05/10 13:20:55;;;;;;;7.60;0.68;;;17.90;99.90;;;;;;5030005;28;20021;-68
2022/05/10 13:23:29;;;;;;;9.55;0.80;;;17.60;99.90;;;;;;5030034;28;20026;-68
2022/05/10 13:26:08;;;;;;;5.88;0.88;;;17.50;99.90;;;;;;5022624;28;20025;-68
2022/05/10 13:29:03;;;;;;;7.90;1.10;;;17.20;99.90;;;;;;5023280;28;20030;-68
2022/05/10 13:31:37;;;;;;;8.77;0.85;;;17.10;99.90;;;;;;5020286;28;20041;-68
2022/05/10 13:34:12;;;;;;;;;;;17.00;99.90;;;;;;5020685;28;20390;-68
2022/05/10 13:36:44;;;;;;;7.85;1.23;;;17.00;99.90;;;;;;5026231;28;19909;-68
2022/05/10 13:39:16;;;;;;;9.93;1.23;;;16.90;99.90;;;;;;5018323;28;20402;-68
2022/05/10 13:41:44;;;;;;;3.88;0.40;;;16.90;99.90;;;;;;5025284;28;20026;-68